Barstow Daggett Airport
KDAG : rendu visible

Aérodrome :











RETROUVEZ-NOUS SUR...

 
LOGIN :

S'inscrire | Disclaimer

   EN    FR    IT 

 









Légende :    VFR   VFR Marginal   IFR   IFR Intensif   IFR Très Intensif
Visi : 
Plafond : 
>= 8 km
>= 3000ft
5 à 8 km
1000 à 3000 ft
1500m à 5 km
500 à 1000 ft
800 à 1500m
200 à 500 ft
< 800m
< 200 ft
Symboles :   Orages  Brouillard  Fortes neiges  Fortes précipitations  Vent > 20 kt






- Altitude de l'aérodrome : 1930 ft


KDAG - Barstow Daggett

DERNIER METAR :
  • 301650Z AUTO 28008KT 10SM CLR 10/M11 A3029 RMK AO2 SLP253 T01001111

METARs EXPIRÉS :
  • 301550Z AUTO 27009KT 10SM CLR 07/M11 A3028 RMK AO2 SLP252 T00671111
  • 301450Z AUTO 28006KT 10SM CLR 03/M12 A3027 RMK AO2 SLP252 T00281117 53012

TAF KDAG
Valide du 30 à 18h jusqu'au 01 à 18h UTC


301720Z 3018/0118 28009KT P6SM SCT200 BKN250
FM302000 06006KT P6SM SKC
FM010100 VRB04KT P6SM SKC
FM010600 27008KT P6SM SKC
FIR KZLA / Amérique du Nord



MET'MAP, la Météo Aéronautique d'un coup d'oeil ! - Copyright ORBIFLY Décembre 2007 - Disclaimer

ORBIFLY MET'MAP TEAM :

Programmation & Développement : Alexandra Zaïnal
Sur une idée originale de : Baudouin d'Aumeries
Assistance à la programmation : Marc-Olivier Méhu
Soutien technique & logistique : Manuel Goepfert

Contact : metmap@orbifly.com




SOURCES & CREDITS :

   NOAA       Earth
Advisory